Time;durP1;ratioP1;P1;durP2;ratioP2;P2;SDS_P1;SDS_P2;PMS_P1;PMS_P2;Temp;Humidity;BMP_temperature;BMP_pressure;BME280_temperature;BME280_humidity;BME280_pressure;Samples;Min_cycle;Max_cycle;Signal;HPM_P1;HPM_P2
2022/06/29 00:01:29;;;;;;;3.30;2.37;;;18.10;99.90;;;18.14;69.27;101399.41;5042520;28;20470;-72
2022/06/29 00:03:57;;;;;;;2.97;2.77;;;18.00;99.90;;;18.15;69.36;101401.06;5051145;28;20439;-72
2022/06/29 00:06:27;;;;;;;4.83;3.90;;;18.00;99.90;;;18.10;69.41;101401.78;5045358;28;20489;-72
2022/06/29 00:08:55;;;;;;;5.10;4.10;;;18.00;99.90;;;18.08;69.49;101397.59;5051335;28;20410;-71
2022/06/29 00:11:24;;;;;;;4.37;3.13;;;17.90;99.90;;;18.14;69.29;101394.75;5033472;28;20462;-71
2022/06/29 00:13:53;;;;;;;6.90;4.23;;;18.00;99.90;;;18.13;69.20;101397.72;5051937;28;20414;-72
2022/06/29 00:16:22;;;;;;;3.10;2.87;;;18.00;99.90;;;18.04;69.64;101399.16;5048294;28;20527;-72
2022/06/29 00:18:52;;;;;;;3.63;3.20;;;17.90;99.90;;;17.97;70.13;101399.28;5043365;28;20489;-71
2022/06/29 00:21:20;;;;;;;4.43;4.03;;;17.90;99.90;;;17.91;70.26;101393.94;5044116;28;20450;-72
2022/06/29 00:23:49;;;;;;;3.17;2.87;;;17.80;99.90;;;17.92;70.34;101392.84;5048228;28;20511;-72
2022/06/29 00:26:18;;;;;;;3.03;2.73;;;17.70;99.90;;;17.88;70.38;101389.75;5053224;28;20573;-71
2022/06/29 00:28:47;;;;;;;3.17;2.83;;;17.70;99.90;;;17.83;70.71;101391.53;5045710;28;20474;-71
2022/06/29 00:31:16;;;;;;;3.10;2.80;;;17.70;99.90;;;17.81;70.81;101387.13;5045448;28;20531;-71
2022/06/29 00:33:45;;;;;;;2.70;2.47;;;17.70;99.90;;;17.73;71.01;101371.06;5048942;28;20414;-71
2022/06/29 00:36:15;;;;;;;3.07;2.73;;;17.60;99.90;;;17.72;71.06;101371.31;5045288;28;20768;-71
2022/06/29 00:38:44;;;;;;;2.83;2.63;;;17.60;99.90;;;17.75;70.96;101374.41;5048460;28;20518;-69
2022/06/29 00:41:12;;;;;;;3.87;3.23;;;17.60;99.90;;;17.74;70.95;101372.75;5047100;28;20450;-72
2022/06/29 00:43:42;;;;;;;5.07;3.10;;;17.60;99.90;;;17.77;70.98;101368.69;5050709;28;20443;-71
2022/06/29 00:46:11;;;;;;;2.40;2.20;;;17.60;99.90;;;17.69;71.19;101361.69;5046688;28;20462;-71
2022/06/29 00:48:40;;;;;;;3.43;2.93;;;17.60;99.90;;;17.65;71.35;101365.97;5050257;28;20991;-71
2022/06/29 00:51:15;;;;;;;2.80;2.20;;;17.50;99.90;;;17.66;71.34;101351.22;5048656;28;20444;-70
2022/06/29 00:53:50;;;;;;;2.67;2.47;;;17.50;99.90;;;17.59;71.52;101350.47;5045452;28;20918;-70
2022/06/29 00:56:22;;;;;;;6.10;3.80;;;17.50;99.90;;;17.52;71.89;101346.19;5048218;28;20488;-71
2022/06/29 00:58:54;;;;;;;3.27;2.60;;;17.40;99.90;;;17.47;71.92;101340.59;5073381;22;20620;-74
2022/06/29 01:01:24;;;;;;;2.90;2.50;;;17.40;99.90;;;17.34;72.36;101325.19;5063678;28;20608;-75
2022/06/29 01:03:53;;;;;;;3.30;3.00;;;17.30;99.90;;;17.31;72.46;101328.44;5070549;28;20472;-74
2022/06/29 01:06:23;;;;;;;3.33;2.40;;;17.20;99.90;;;17.30;72.49;101338.53;5052166;28;20474;-75
2022/06/29 01:08:52;;;;;;;3.10;2.50;;;17.20;99.90;;;17.33;72.12;101339.97;5062997;28;21055;-75
2022/06/29 01:11:21;;;;;;;3.07;2.30;;;17.20;99.90;;;17.27;72.27;101338.19;5062978;28;20500;-74
2022/06/29 01:13:50;;;;;;;2.50;2.30;;;17.20;99.90;;;17.23;72.37;101331.53;5068881;28;20413;-75
2022/06/29 01:16:19;;;;;;;2.20;2.00;;;17.10;99.90;;;17.22;72.17;101329.84;5067926;28;20438;-75
2022/06/29 01:18:48;;;;;;;2.30;2.10;;;17.10;99.90;;;17.18;72.07;101334.13;5071307;28;20421;-76
2022/06/29 01:21:21;;;;;;;2.30;2.10;;;17.10;99.90;;;17.22;72.44;101332.56;5063350;28;20529;-74
2022/06/29 01:23:51;;;;;;;2.50;2.30;;;17.10;99.90;;;17.30;71.95;101334.97;5067795;28;20435;-73
2022/06/29 01:26:19;;;;;;;2.57;2.20;;;17.10;99.90;;;17.20;71.72;101326.50;5050401;28;20828;-73
2022/06/29 01:28:48;;;;;;;2.40;2.20;;;17.10;99.90;;;17.10;72.08;101326.25;5069633;28;20434;-74
2022/06/29 01:31:19;;;;;;;3.03;2.80;;;17.10;99.90;;;17.15;71.91;101329.09;5068069;28;20495;-74
2022/06/29 01:33:49;;;;;;;2.67;2.37;;;17.00;99.90;;;17.12;71.83;101332.31;5064601;28;20546;-75
2022/06/29 01:36:19;;;;;;;2.73;2.20;;;17.00;99.90;;;17.10;71.82;101335.28;5067648;28;20529;-74
2022/06/29 01:38:47;;;;;;;2.90;2.20;;;17.00;99.90;;;17.11;71.90;101336.94;5069285;28;20438;-75
2022/06/29 01:41:18;;;;;;;2.50;2.20;;;17.00;99.90;;;17.17;71.18;101327.81;5066424;28;20450;-75
2022/06/29 01:43:47;;;;;;;2.50;2.27;;;17.00;99.90;;;17.16;71.05;101326.16;5069967;28;20462;-74
2022/06/29 01:46:15;;;;;;;2.20;2.00;;;17.10;99.90;;;17.11;71.32;101330.66;5050824;28;20470;-74
2022/06/29 01:48:44;;;;;;;4.70;3.17;;;17.00;99.90;;;17.09;71.31;101324.59;5065666;28;20465;-75
2022/06/29 01:51:13;;;;;;;2.77;2.57;;;17.00;99.90;;;17.10;71.43;101335.28;5067602;28;20519;-75
2022/06/29 01:53:42;;;;;;;2.83;2.53;;;17.00;99.90;;;17.03;71.59;101337.28;5066441;28;20462;-73
2022/06/29 01:56:11;;;;;;;2.60;2.40;;;16.90;99.90;;;17.03;71.64;101340.03;5064087;28;20496;-75
2022/06/29 01:58:41;;;;;;;2.67;2.30;;;16.90;99.90;;;17.03;71.63;101345.50;5067176;28;20453;-75
2022/06/29 02:01:10;;;;;;;2.97;2.17;;;16.90;99.90;;;17.03;71.78;101341.94;5068579;28;20942;-75
2022/06/29 02:03:39;;;;;;;2.10;1.87;;;16.90;99.90;;;16.97;71.74;101337.38;5066174;28;20409;-74
2022/06/29 02:06:08;;;;;;;2.50;2.23;;;16.90;99.90;;;17.00;71.80;101345.13;5065977;28;20469;-74
2022/06/29 02:08:37;;;;;;;2.33;2.13;;;16.90;99.90;;;17.00;71.76;101345.94;5050487;28;20500;-74
2022/06/29 02:11:06;;;;;;;2.73;2.00;;;16.90;99.90;;;17.00;71.75;101332.28;5046878;28;20454;-74
2022/06/29 02:13:35;;;;;;;2.50;2.30;;;16.80;99.90;;;17.01;71.80;101316.72;5066197;28;20446;-75
2022/06/29 02:16:06;;;;;;;2.73;2.23;;;16.90;99.90;;;16.92;72.15;101314.31;5065868;28;20437;-74
2022/06/29 02:18:35;;;;;;;2.57;2.23;;;16.80;99.90;;;16.91;72.05;101320.00;5064594;28;20517;-74
2022/06/29 02:21:04;;;;;;;2.97;2.27;;;16.80;99.90;;;16.80;72.71;101323.53;5069509;28;21027;-73
2022/06/29 02:23:33;;;;;;;2.63;2.20;;;16.70;99.90;;;16.74;72.95;101319.88;5057683;28;20877;-75
2022/06/29 02:26:02;;;;;;;3.17;2.80;;;16.60;99.90;;;16.73;73.10;101320.09;5068543;28;20565;-74
2022/06/29 02:28:31;;;;;;;2.30;2.10;;;16.60;99.90;;;16.77;73.22;101322.13;5069225;28;20958;-74
2022/06/29 02:36:34;;;;;;;2.57;2.37;;;16.60;99.90;;;16.79;73.29;101341.03;5067196;28;20440;-75
2022/06/29 02:39:03;;;;;;;2.90;2.60;;;16.60;99.90;;;16.90;73.13;101345.69;5070859;28;20445;-74
2022/06/29 02:41:32;;;;;;;2.60;2.07;;;16.70;99.90;;;16.89;73.23;101353.03;5066445;28;20454;-75
2022/06/29 02:44:01;;;;;;;3.20;2.53;;;16.70;99.90;;;16.85;73.17;101356.47;5070576;28;20925;-75
2022/06/29 02:46:30;;;;;;;2.77;2.40;;;16.70;99.90;;;16.81;73.39;101349.81;5072489;28;21014;-75
2022/06/29 02:49:00;;;;;;;2.00;1.87;;;16.70;99.90;;;16.79;73.58;101354.69;5071313;28;20443;-74
2022/06/29 02:51:29;;;;;;;3.33;2.20;;;16.70;99.90;;;16.84;73.46;101346.63;5054146;28;20866;-74
2022/06/29 02:53:57;;;;;;;4.00;3.57;;;16.70;99.90;;;16.74;73.72;101346.34;5070915;28;20469;-74
2022/06/29 02:56:26;;;;;;;4.70;2.47;;;16.60;99.90;;;16.63;74.30;101342.50;5069455;28;20826;-74
2022/06/29 02:58:55;;;;;;;3.80;2.70;;;16.60;99.90;;;16.65;74.40;101336.81;5071174;28;20970;-75
2022/06/29 03:01:24;;;;;;;3.70;2.83;;;16.60;99.90;;;16.69;74.24;101330.66;5071115;28;20453;-74
2022/06/29 03:03:53;;;;;;;3.10;2.80;;;16.60;99.90;;;16.68;74.32;101328.97;5069915;28;20426;-73
2022/06/29 03:06:23;;;;;;;3.93;3.53;;;16.50;99.90;;;16.79;74.11;101330.09;5048541;28;20482;-75
2022/06/29 03:08:52;;;;;;;3.27;2.80;;;16.60;99.90;;;16.84;73.76;101333.81;5070227;28;20427;-76
2022/06/29 03:11:21;;;;;;;3.77;2.90;;;16.70;99.90;;;16.83;74.00;101337.59;5070759;28;20434;-74
2022/06/29 03:13:50;;;;;;;2.60;2.40;;;16.70;99.90;;;16.87;73.98;101338.78;5065971;28;20835;-75
2022/06/29 03:16:18;;;;;;;4.13;2.97;;;16.70;99.90;;;16.89;73.88;101336.63;5070963;28;20484;-74
2022/06/29 03:18:49;;;;;;;2.60;2.40;;;16.70;99.90;;;16.97;73.52;101342.84;5071330;28;20509;-73
2022/06/29 03:21:18;;;;;;;2.93;2.67;;;16.70;99.90;;;17.05;73.18;101339.78;5070640;28;20705;-73
2022/06/29 03:23:49;;;;;;;2.50;2.30;;;16.80;99.90;;;17.10;72.85;101343.47;5071031;28;20430;-76
2022/06/29 03:26:18;;;;;;;3.00;2.70;;;16.90;99.90;;;17.15;72.71;101342.78;5070728;28;20765;-75
2022/06/29 03:28:52;;;;;;;5.97;3.10;;;16.90;99.90;;;17.20;72.49;101340.16;5064169;28;20443;-74
2022/06/29 03:31:21;;;;;;;3.33;2.80;;;17.00;99.90;;;17.28;71.96;101345.31;5061670;28;20525;-75
2022/06/29 03:33:51;;;;;;;5.43;2.90;;;17.00;99.90;;;17.33;71.51;101338.03;5070057;28;20586;-74
2022/06/29 03:36:19;;;;;;;2.83;2.40;;;17.10;99.90;;;17.35;71.57;101343.28;5067161;28;20437;-75
2022/06/29 03:38:49;;;;;;;2.93;2.33;;;17.10;99.90;;;17.43;71.21;101339.41;5070780;28;20409;-74
2022/06/29 03:41:18;;;;;;;4.40;2.87;;;17.20;99.90;;;17.52;70.69;101330.59;5070391;28;20426;-75
2022/06/29 03:43:47;;;;;;;5.50;2.93;;;17.20;99.90;;;17.71;69.90;101334.06;5070921;28;20430;-75
2022/06/29 03:46:16;;;;;;;2.37;2.17;;;17.40;99.90;;;17.99;69.46;101333.31;5065934;28;21047;-74
2022/06/29 03:48:45;;;;;;;4.80;2.40;;;17.50;99.90;;;19.05;65.55;101333.56;5056875;28;20433;-75
2022/06/29 03:51:13;;;;;;;2.93;2.50;;;17.90;99.90;;;19.12;64.81;101335.31;5069435;28;20438;-73
2022/06/29 03:53:42;;;;;;;4.10;2.67;;;18.20;99.90;;;18.86;65.42;101334.03;5070563;28;20423;-73
2022/06/29 03:56:13;;;;;;;2.50;2.30;;;18.30;99.90;;;19.32;64.02;101336.47;5067918;28;21030;-75
2022/06/29 03:58:42;;;;;;;4.30;2.60;;;18.50;99.90;;;19.77;62.80;101339.16;5066034;28;20481;-75
2022/06/29 04:01:11;;;;;;;2.33;2.10;;;18.80;99.90;;;20.41;60.87;101333.16;5069855;28;20988;-73
2022/06/29 04:03:40;;;;;;;2.53;1.97;;;19.00;98.50;;;21.32;58.14;101329.44;5066367;28;20426;-76
2022/06/29 04:06:10;;;;;;;3.20;2.43;;;19.50;93.70;;;21.92;56.10;101334.56;5063017;28;20430;-77
2022/06/29 04:08:39;;;;;;;2.50;2.30;;;20.10;84.40;;;21.92;55.56;101339.22;5063130;28;20433;-74
2022/06/29 04:11:48;;;;;;;2.53;2.20;;;20.60;67.70;;;21.14;58.06;101344.44;5069256;28;20418;-73
2022/06/29 04:13:58;;;;;;;2.90;2.57;;;20.40;62.90;;;20.54;59.44;101346.50;5067929;28;20984;-76
2022/06/29 04:16:27;;;;;;;2.60;2.30;;;20.10;68.40;;;20.75;59.51;101351.16;5052391;28;20445;-75
2022/06/29 04:18:56;;;;;;;2.93;2.73;;;19.90;78.20;;;21.13;58.44;101353.78;5063320;28;20443;-74
2022/06/29 04:21:26;;;;;;;2.97;2.77;;;20.00;76.30;;;21.73;56.45;101358.13;5053816;28;20462;-75
2022/06/29 04:23:55;;;;;;;2.43;2.13;;;20.20;71.70;;;22.89;53.36;101358.72;5044248;28;20712;-75
2022/06/29 04:26:24;;;;;;;5.20;2.27;;;20.70;59.00;;;23.85;51.00;101362.63;5068052;28;20453;-73
2022/06/29 04:28:53;;;;;;;3.20;2.60;;;21.40;48.90;;;24.97;48.00;101363.88;5062588;28;20508;-74
2022/06/29 04:31:23;;;;;;;2.53;2.30;;;22.10;38.00;;;25.49;46.77;101352.94;5069474;28;20408;-74
2022/06/29 04:33:52;;;;;;;2.67;2.13;;;22.90;29.40;;;26.02;45.59;101357.72;5073032;28;20434;-74
2022/06/29 04:36:21;;;;;;;3.33;3.03;;;23.00;24.80;;;26.81;43.97;101360.63;5082480;28;20408;-74
2022/06/29 04:38:50;;;;;;;2.43;2.17;;;23.90;20.70;;;26.42;44.44;101357.28;5081058;28;20402;-74
2022/06/29 04:41:19;;;;;;;2.33;2.10;;;24.10;16.80;;;26.67;44.33;101364.44;5084292;28;20477;-74
2022/06/29 04:43:48;;;;;;;2.77;1.50;;;23.60;17.90;;;27.21;43.07;101358.38;5071182;28;20438;-75
2022/06/29 04:46:19;;;;;;;3.07;2.20;;;24.00;16.40;;;27.72;41.65;101363.94;5070130;28;20435;-74
2022/06/29 04:48:53;;;;;;;4.07;2.90;;;24.80;13.80;;;27.76;42.03;101364.16;5069317;28;20782;-73
2022/06/29 04:51:23;;;;;;;2.97;1.83;;;25.20;11.60;;;27.67;41.59;101366.81;5070093;28;20492;-75
2022/06/29 04:53:54;;;;;;;3.00;2.30;;;25.10;10.20;;;27.37;41.75;101368.13;5070097;28;20401;-73
2022/06/29 04:56:25;;;;;;;2.53;2.03;;;25.40;8.90;;;26.51;43.83;101368.53;5063962;28;20479;-73
2022/06/29 04:58:55;;;;;;;3.50;2.43;;;24.90;9.30;;;27.09;42.63;101369.97;5051140;28;20968;-74
2022/06/29 05:01:26;;;;;;;2.60;2.10;;;24.80;9.70;;;26.75;43.63;101366.56;5069292;28;20469;-71
2022/06/29 05:03:59;;;;;;;3.93;2.43;;;24.50;9.70;;;27.19;42.63;101377.31;5069743;28;20441;-74
2022/06/29 05:06:28;;;;;;;1.90;1.43;;;24.50;9.80;;;26.98;42.91;101385.13;5069400;28;20442;-74
2022/06/29 05:08:57;;;;;;;2.47;2.07;;;25.00;9.00;;;27.12;42.66;101380.47;5070034;28;20422;-74
2022/06/29 05:11:28;;;;;;;2.50;1.87;;;24.90;8.80;;;27.25;42.75;101381.69;5052546;28;20444;-75
2022/06/29 05:13:57;;;;;;;2.80;2.23;;;24.80;9.20;;;27.59;41.86;101375.88;5066387;28;20405;-75
2022/06/29 05:16:26;;;;;;;3.77;2.07;;;25.10;8.10;;;27.21;42.52;101375.88;5069387;28;20446;-72
2022/06/29 05:18:56;;;;;;;3.90;2.23;;;24.60;8.40;;;28.42;40.79;101384.03;5069665;28;20450;-74
2022/06/29 05:21:25;;;;;;;3.43;2.13;;;25.00;8.50;;;28.47;40.79;101380.31;5064877;28;20439;-74
2022/06/29 05:23:54;;;;;;;2.70;2.10;;;25.20;7.80;;;28.50;40.48;101380.53;5069035;28;20441;-75
2022/06/29 05:26:24;;;;;;;2.90;2.63;;;25.20;7.60;;;28.67;40.06;101367.91;5069973;28;20923;-74
2022/06/29 05:28:53;;;;;;;3.30;2.73;;;26.10;5.70;;;28.58;40.47;101372.56;5066523;28;20550;-75
2022/06/29 05:31:23;;;;;;;2.30;2.10;;;26.30;4.70;;;28.31;40.88;101370.63;5061882;28;20468;-74
2022/06/29 05:33:52;;;;;;;2.90;2.60;;;26.40;3.80;;;29.08;39.45;101367.84;5068604;28;21009;-74
2022/06/29 05:36:22;;;;;;;3.50;2.50;;;26.10;4.10;;;28.93;39.30;101360.66;5065060;28;20426;-74
2022/06/29 05:38:51;;;;;;;3.33;2.50;;;26.60;3.00;;;26.85;43.28;101346.97;5065401;28;20921;-74
2022/06/29 05:41:19;;;;;;;2.80;1.60;;;25.60;4.50;;;24.74;47.81;101347.94;5063131;28;20822;-74
2022/06/29 05:43:51;;;;;;;2.57;2.37;;;24.40;7.70;;;22.85;52.78;101349.31;5068793;28;20879;-74
2022/06/29 05:46:22;;;;;;;2.23;2.03;;;23.30;11.60;;;21.75;55.97;101344.91;5066004;28;20998;-73
2022/06/29 05:48:51;;;;;;;3.00;2.73;;;22.20;16.00;;;21.56;56.83;101352.75;5068901;28;20448;-73
2022/06/29 05:51:21;;;;;;;3.77;3.00;;;21.80;21.40;;;21.41;57.34;101349.06;5064946;28;20405;-73
2022/06/29 05:53:50;;;;;;;2.60;2.33;;;21.30;26.30;;;21.41;57.51;101343.53;5069317;28;20722;-74
2022/06/29 05:56:19;;;;;;;3.67;2.70;;;21.30;29.90;;;21.56;57.52;101346.41;5068517;28;20570;-73
2022/06/29 05:58:48;;;;;;;2.50;2.30;;;21.20;34.70;;;21.59;57.35;101351.41;5069535;28;20412;-74
2022/06/29 06:01:17;;;;;;;2.57;2.23;;;21.30;36.70;;;21.61;57.71;101346.47;5069924;28;20442;-74
2022/06/29 06:03:46;;;;;;;4.53;2.97;;;21.40;38.10;;;21.51;57.62;101349.13;5067574;28;20412;-74
2022/06/29 06:06:15;;;;;;;3.50;3.20;;;21.30;38.50;;;21.21;58.64;101339.53;5077986;28;20452;-73
2022/06/29 06:08:45;;;;;;;4.00;2.80;;;21.10;40.50;;;21.11;58.57;101339.41;5083903;28;20491;-73
2022/06/29 06:11:14;;;;;;;3.43;3.13;;;21.00;42.30;;;21.09;58.33;101347.09;5087294;28;20415;-73
2022/06/29 06:13:43;;;;;;;4.00;3.00;;;20.90;44.00;;;21.25;58.19;101351.66;5081246;28;20437;-71
2022/06/29 06:16:11;;;;;;;3.20;2.90;;;20.90;46.30;;;21.52;57.35;101350.81;5083665;28;20518;-73
2022/06/29 06:19:00;;;;;;;3.20;2.80;;;21.10;44.50;;;21.66;57.23;101350.09;5072253;28;20412;-74
2022/06/29 06:21:29;;;;;;;3.73;2.70;;;21.20;43.70;;;21.76;56.32;101342.97;5072583;28;20539;-73
2022/06/29 06:23:59;;;;;;;5.40;2.63;;;21.40;39.00;;;21.63;56.19;101331.34;5075995;28;20401;-72
2022/06/29 06:26:28;;;;;;;2.90;2.60;;;21.40;36.20;;;21.65;56.70;101333.81;5084232;28;20434;-75
2022/06/29 06:28:56;;;;;;;2.50;1.90;;;21.40;36.20;;;21.83;55.33;101327.91;5084810;28;20447;-74
2022/06/29 06:31:26;;;;;;;2.63;1.97;;;21.50;32.30;;;22.08;54.32;101338.22;5075448;28;20496;-73
2022/06/29 06:33:55;;;;;;;3.83;1.50;;;21.60;30.50;;;22.20;53.35;101332.50;5087236;28;20408;-73
2022/06/29 06:36:24;;;;;;;3.20;1.83;;;21.80;27.30;;;22.18;53.61;101341.03;5086365;28;20401;-74
2022/06/29 06:38:53;;;;;;;4.53;2.00;;;21.80;26.80;;;22.50;52.79;101340.91;5077008;28;20811;-73
2022/06/29 06:41:22;;;;;;;3.73;2.60;;;22.00;26.50;;;22.44;52.66;101323.53;5071784;28;20964;-75
2022/06/29 06:43:52;;;;;;;2.73;1.80;;;22.10;24.20;;;22.43;52.32;101321.03;5065605;28;20419;-73
2022/06/29 06:46:22;;;;;;;2.10;1.57;;;22.10;22.80;;;22.49;51.66;101317.19;5060488;28;20458;-73
2022/06/29 06:48:52;;;;;;;3.30;1.83;;;22.10;20.80;;;22.73;51.83;101323.91;5068020;28;20432;-75
2022/06/29 06:51:23;;;;;;;3.00;1.90;;;22.20;21.70;;;22.82;50.80;101329.72;5072879;28;20416;-74
2022/06/29 06:53:53;;;;;;;1.90;1.70;;;22.30;20.10;;;22.83;51.16;101323.09;5068854;28;20413;-74
2022/06/29 06:56:23;;;;;;;1.90;1.70;;;22.40;19.80;;;22.96;49.38;101328.91;5068700;28;20443;-73
2022/06/29 06:58:52;;;;;;;1.73;1.10;;;22.50;16.60;;;22.76;47.73;101328.03;5073170;28;20444;-74
2022/06/29 07:01:23;;;;;;;2.27;2.07;;;22.50;12.30;;;22.90;47.48;101324.47;5066682;28;20445;-73
2022/06/29 07:03:52;;;;;;;2.17;1.50;;;22.50;12.00;;;22.76;47.61;101311.47;5068326;28;20731;-75
2022/06/29 07:06:22;;;;;;;1.40;1.30;;;22.50;10.90;;;22.76;47.33;101317.00;5068212;28;20496;-74
2022/06/29 07:08:50;;;;;;;2.00;1.70;;;22.40;10.20;;;23.03;46.68;101319.53;5072174;28;20437;-73
2022/06/29 07:11:19;;;;;;;2.03;1.30;;;22.60;9.80;;;23.34;46.57;101318.44;5072208;28;20435;-74
2022/06/29 07:13:49;;;;;;;2.10;1.60;;;22.70;9.80;;;23.59;46.36;101323.97;5052836;28;20448;-72
2022/06/29 07:16:18;;;;;;;2.27;1.40;;;22.90;9.70;;;23.88;45.39;101323.34;5067000;28;20418;-74
2022/06/29 07:18:48;;;;;;;2.40;2.00;;;23.30;8.30;;;23.74;45.47;101320.34;5067793;28;20427;-74
2022/06/29 07:21:17;;;;;;;4.03;1.57;;;23.40;7.20;;;23.93;44.53;101310.34;5071377;28;20418;-73
2022/06/29 07:23:46;;;;;;;1.63;1.20;;;23.60;5.90;;;23.71;44.79;101313.47;5072104;28;20834;-73
2022/06/29 07:26:14;;;;;;;4.20;1.83;;;23.50;5.20;;;23.72;44.92;101314.28;5069358;28;20409;-73
2022/06/29 07:28:43;;;;;;;1.97;1.63;;;23.40;5.70;;;23.56;45.12;101313.47;5065500;28;20494;-75
2022/06/29 07:31:13;;;;;;;2.03;1.47;;;23.30;4.90;;;23.36;44.49;101305.19;5068755;28;20884;-72
2022/06/29 07:33:42;;;;;;;2.90;2.30;;;23.20;4.10;;;23.31;45.27;101302.41;5067091;28;20715;-74
2022/06/29 07:36:18;;;;;;;2.30;2.10;;;23.10;4.40;;;23.40;45.17;101312.63;5071747;28;20480;-74
2022/06/29 07:38:46;;;;;;;2.60;1.57;;;23.00;4.70;;;23.32;44.42;101301.31;5068835;28;20919;-73
2022/06/29 07:41:15;;;;;;;1.70;1.10;;;23.10;3.20;;;23.42;44.06;101304.09;5066998;28;20996;-74
2022/06/29 07:43:44;;;;;;;1.97;1.30;;;23.10;3.10;;;23.44;43.41;101307.38;5069767;28;20429;-73
2022/06/29 07:46:15;;;;;;;2.50;1.53;;;23.10;2.20;;;23.70;43.73;101309.03;5070290;28;20413;-74
2022/06/29 07:48:44;;;;;;;1.70;1.27;;;23.20;2.70;;;23.58;43.16;101308.50;5071015;28;20551;-75
2022/06/29 07:51:13;;;;;;;1.97;1.30;;;23.30;1.50;;;23.73;42.63;101302.94;5072179;28;20409;-74
2022/06/29 07:53:42;;;;;;;2.70;1.00;;;23.30;1.00;;;23.67;42.33;101294.97;5074848;28;20797;-73
2022/06/29 07:56:11;;;;;;;1.70;1.07;;;23.40;1.00;;;23.78;41.68;101300.16;5066741;28;20529;-76
2022/06/29 07:58:40;;;;;;;5.53;1.20;;;23.50;1.00;;;23.87;41.77;101294.09;5066674;28;20429;-73
2022/06/29 08:01:09;;;;;;;1.73;1.50;;;23.50;1.00;;;24.08;41.89;101287.34;5070886;28;20509;-74
2022/06/29 08:03:40;;;;;;;3.63;1.67;;;23.60;1.00;;;24.28;41.61;101273.47;5072090;28;20955;-74
2022/06/29 08:06:09;;;;;;;2.23;1.17;;;23.80;1.00;;;24.25;41.31;101274.84;5069571;28;20903;-75
2022/06/29 08:08:38;;;;;;;1.67;1.00;;;24.00;1.00;;;24.57;40.93;101266.13;5071704;28;20757;-74
2022/06/29 08:11:07;;;;;;;3.20;1.20;;;24.10;1.00;;;24.66;41.25;101269.94;5059667;28;20430;-71
2022/06/29 08:13:38;;;;;;;2.90;1.40;;;24.10;1.00;;;24.47;41.00;101266.19;5063628;28;20416;-74
2022/06/29 08:16:07;;;;;;;1.70;1.30;;;24.30;1.00;;;24.61;40.72;101274.66;5069891;28;20750;-73
2022/06/29 08:18:38;;;;;;;1.70;1.10;;;24.30;1.00;;;25.21;37.98;101267.06;5064611;28;20961;-73
2022/06/29 08:21:07;;;;;;;1.87;1.20;;;24.60;1.00;;;25.24;36.98;101258.97;5066025;28;20507;-75
2022/06/29 08:23:36;;;;;;;1.93;1.10;;;24.90;1.00;;;25.43;36.53;101267.38;5071818;28;20903;-74
2022/06/29 08:26:10;;;;;;;3.93;1.73;;;24.90;1.00;;;26.04;35.84;101266.75;5065911;28;20474;-74
2022/06/29 08:28:59;;;;;;;1.77;1.00;;;25.40;1.00;;;25.58;36.58;101275.56;5080630;28;20505;-72
2022/06/29 08:31:27;;;;;;;1.90;1.30;;;25.40;1.00;;;25.43;36.63;101282.06;5083565;28;20409;-72
2022/06/29 08:33:58;;;;;;;3.20;1.30;;;25.40;1.00;;;25.30;37.45;101276.38;5067189;28;20462;-75
2022/06/29 08:36:26;;;;;;;2.00;1.50;;;25.20;1.00;;;25.48;37.10;101276.47;5079983;28;20469;-73
2022/06/29 08:39:16;;;;;;;2.43;1.30;;;25.20;1.00;;;26.10;36.14;101277.47;5065858;28;20435;-74
2022/06/29 08:41:45;;;;;;;3.03;1.37;;;25.50;1.00;;;26.45;35.59;101278.16;5069525;28;20822;-73
2022/06/29 08:44:14;;;;;;;1.93;1.33;;;25.80;1.00;;;26.16;34.92;101283.78;5071346;28;20438;-73
2022/06/29 08:46:43;;;;;;;2.20;1.20;;;25.70;1.00;;;25.61;35.31;101285.25;5066896;28;20437;-74
2022/06/29 08:49:13;;;;;;;1.60;1.03;;;25.40;1.00;;;25.78;35.08;101274.53;5065977;28;20470;-76
2022/06/29 08:51:45;;;;;;;2.03;1.00;;;25.40;1.00;;;26.02;35.35;101278.13;5070919;28;20457;-74
2022/06/29 08:54:17;;;;;;;1.50;0.80;;;25.60;1.00;;;26.18;33.98;101268.50;5072384;28;20767;-73
2022/06/29 08:56:47;;;;;;;3.17;1.10;;;25.70;1.00;;;26.11;34.19;101279.13;5068250;28;21058;-75
2022/06/29 08:59:17;;;;;;;1.93;1.07;;;25.70;1.00;;;26.09;33.87;101278.59;5065946;28;20430;-74
2022/06/29 09:02:06;;;;;;;1.60;1.10;;;25.80;1.00;;;25.85;33.83;101273.03;5070717;28;20443;-72
2022/06/29 09:04:37;;;;;;;1.90;1.00;;;25.70;1.00;;;25.77;34.20;101272.88;5067247;28;20499;-74
2022/06/29 09:07:05;;;;;;;2.30;1.30;;;25.50;1.00;;;25.51;34.23;101272.31;5067243;28;20993;-74
2022/06/29 09:09:59;;;;;;;3.77;0.77;;;25.40;1.00;;;25.36;34.97;101273.28;5064117;28;20477;-74
2022/06/29 09:12:30;;;;;;;2.03;0.90;;;25.10;1.00;;;25.60;35.00;101266.97;5066936;28;20457;-73
2022/06/29 09:14:59;;;;;;;1.70;1.30;;;25.10;1.00;;;25.98;34.72;101265.97;5051038;28;20736;-74
2022/06/29 09:17:31;;;;;;;4.43;1.10;;;25.30;1.00;;;26.06;34.66;101262.53;5070697;28;20857;-74
2022/06/29 09:20:03;;;;;;;2.00;1.10;;;25.40;1.00;;;26.24;33.78;101267.31;5065698;28;20435;-74
2022/06/29 09:22:53;;;;;;;4.60;1.50;;;25.70;1.00;;;26.26;33.33;101262.31;5049657;28;20477;-74
2022/06/29 09:25:23;;;;;;;1.53;0.97;;;25.90;1.00;;;26.26;32.38;101265.09;5066072;28;20438;-73
2022/06/29 09:27:55;;;;;;;1.77;1.13;;;25.80;1.00;;;25.95;33.01;101264.59;5066231;28;20529;-73
2022/06/29 09:30:27;;;;;;;1.43;1.33;;;25.70;1.00;;;25.77;33.13;101268.16;5068085;28;20814;-74
2022/06/29 09:33:05;;;;;;;6.20;1.10;;;25.50;1.00;;;26.23;32.63;101253.78;5071020;28;20461;-73
2022/06/29 09:35:36;;;;;;;2.10;1.07;;;25.60;1.00;;;26.26;32.85;101259.53;5072062;28;20434;-73
2022/06/29 09:38:25;;;;;;;2.23;1.50;;;25.70;1.00;;;26.49;31.64;101257.00;5072600;28;20401;-74
2022/06/29 09:41:03;;;;;;;4.90;1.20;;;26.00;1.00;;;26.60;32.96;101252.94;5071459;28;20453;-72
2022/06/29 09:43:34;;;;;;;1.80;1.10;;;26.20;1.00;;;26.21;33.60;101253.19;5071850;28;20494;-74
2022/06/29 09:46:05;;;;;;;1.93;1.13;;;26.10;1.00;;;26.30;33.12;101248.66;5076171;28;20911;-73
2022/06/29 09:48:36;;;;;;;1.70;1.00;;;26.00;1.00;;;26.39;33.54;101250.47;5075257;28;20430;-73
2022/06/29 09:53:55;;;;;;;2.13;0.87;;;26.10;1.00;;;27.30;31.73;101236.28;5072301;28;20958;-73
2022/06/29 09:56:30;;;;;;;1.80;1.10;;;26.50;1.00;;;27.64;32.77;101234.00;5069928;28;20442;-73
2022/06/29 09:59:00;;;;;;;2.47;1.40;;;26.90;1.00;;;27.74;32.94;101239.31;5070328;28;20448;-73
2022/06/29 10:04:18;;;;;;;1.60;1.00;;;27.20;1.00;;;26.97;33.76;101230.72;5050767;28;21035;-74
2022/06/29 10:06:50;;;;;;;2.03;1.33;;;26.80;1.00;;;26.94;33.63;101236.88;5070861;28;20880;-74
2022/06/29 10:09:20;;;;;;;2.40;1.13;;;26.70;1.00;;;27.18;33.56;101234.81;5072964;28;20924;-72
2022/06/29 10:15:23;;;;;;;3.40;1.10;;;26.20;1.00;;;26.07;35.75;101222.59;5011854;28;20441;-72
2022/06/29 10:18:05;;;;;;;1.30;0.80;;;25.80;1.00;;;25.99;35.34;101226.03;5062332;28;20730;-73
2022/06/29 10:20:43;;;;;;;2.07;1.73;;;25.80;1.00;;;26.11;34.97;101226.41;5051393;28;20438;-74
2022/06/29 10:23:49;;;;;;;2.57;1.00;;;25.60;1.00;;;26.47;34.67;101231.50;5073957;28;20432;-74
2022/06/29 10:26:46;;;;;;;1.80;1.70;;;25.80;1.00;;;26.28;34.42;101226.78;5045668;28;20475;-76
2022/06/29 10:29:40;;;;;;;1.60;1.13;;;25.90;1.00;;;26.10;35.04;101222.00;5070970;28;20978;-74
2022/06/29 10:32:17;;;;;;;1.97;1.40;;;25.80;1.00;;;25.86;35.00;101226.75;5065759;28;20526;-74
2022/06/29 10:37:33;;;;;;;1.70;1.10;;;25.60;1.00;;;25.88;34.85;101208.69;5069247;28;20533;-74
2022/06/29 10:40:08;;;;;;;3.37;1.37;;;25.60;1.00;;;26.00;35.43;101210.22;5055690;28;20413;-74
2022/06/29 10:45:40;;;;;;;1.60;1.20;;;25.50;1.00;;;26.07;34.47;101208.72;5073768;28;20462;-76
2022/06/29 10:48:31;;;;;;;2.33;1.37;;;25.60;1.00;;;26.02;34.74;101214.34;5048550;28;20513;-74
2022/06/29 10:50:59;;;;;;;1.43;0.90;;;25.60;1.00;;;26.08;34.88;101212.34;5068962;28;20444;-73